sensor_id;sensor_type;location;lat;lon;timestamp;P1;durP1;ratioP1;P2;durP2;ratioP2
20669;SDS011;10494;50.868;4.180;2023-08-01T00:00:26;6.38;;;2.30;;
20669;SDS011;10494;50.868;4.180;2023-08-01T00:02:52;5.22;;;2.58;;
20669;SDS011;10494;50.868;4.180;2023-08-01T00:05:19;6.85;;;2.20;;
20669;SDS011;10494;50.868;4.180;2023-08-01T00:07:45;7.93;;;2.35;;
20669;SDS011;10494;50.868;4.180;2023-08-01T00:10:10;3.65;;;2.35;;
20669;SDS011;10494;50.868;4.180;2023-08-01T00:12:36;10.75;;;2.83;;
20669;SDS011;10494;50.868;4.180;2023-08-01T00:15:02;4.68;;;2.28;;
20669;SDS011;10494;50.868;4.180;2023-08-01T00:17:28;10.73;;;2.92;;
20669;SDS011;10494;50.868;4.180;2023-08-01T00:19:53;4.50;;;2.55;;
20669;SDS011;10494;50.868;4.180;2023-08-01T00:22:20;4.63;;;2.72;;
20669;SDS011;10494;50.868;4.180;2023-08-01T00:24:46;4.50;;;3.10;;
20669;SDS011;10494;50.868;4.180;2023-08-01T00:27:14;8.95;;;3.22;;
20669;SDS011;10494;50.868;4.180;2023-08-01T00:29:40;10.10;;;3.63;;
20669;SDS011;10494;50.868;4.180;2023-08-01T00:32:06;8.25;;;2.95;;
20669;SDS011;10494;50.868;4.180;2023-08-01T00:34:32;7.97;;;3.30;;
20669;SDS011;10494;50.868;4.180;2023-08-01T00:36:57;5.20;;;3.20;;
20669;SDS011;10494;50.868;4.180;2023-08-01T00:39:23;12.30;;;4.00;;
20669;SDS011;10494;50.868;4.180;2023-08-01T00:41:49;5.60;;;3.22;;
20669;SDS011;10494;50.868;4.180;2023-08-01T00:44:14;11.45;;;3.50;;
20669;SDS011;10494;50.868;4.180;2023-08-01T00:46:40;12.73;;;3.63;;
20669;SDS011;10494;50.868;4.180;2023-08-01T00:49:05;8.35;;;3.58;;
20669;SDS011;10494;50.868;4.180;2023-08-01T00:51:33;9.57;;;3.53;;
20669;SDS011;10494;50.868;4.180;2023-08-01T00:53:59;11.20;;;4.03;;
20669;SDS011;10494;50.868;4.180;2023-08-01T00:56:25;7.30;;;3.97;;
20669;SDS011;10494;50.868;4.180;2023-08-01T00:58:51;8.00;;;3.70;;
20669;SDS011;10494;50.868;4.180;2023-08-01T01:01:17;9.02;;;5.00;;
20669;SDS011;10494;50.868;4.180;2023-08-01T01:03:42;10.43;;;4.00;;
20669;SDS011;10494;50.868;4.180;2023-08-01T01:06:16;14.25;;;4.40;;
20669;SDS011;10494;50.868;4.180;2023-08-01T01:08:47;13.88;;;4.95;;
20669;SDS011;10494;50.868;4.180;2023-08-01T01:11:13;11.38;;;4.65;;
20669;SDS011;10494;50.868;4.180;2023-08-01T01:13:39;9.32;;;4.60;;
20669;SDS011;10494;50.868;4.180;2023-08-01T01:16:05;16.23;;;4.55;;
20669;SDS011;10494;50.868;4.180;2023-08-01T01:18:30;14.40;;;4.68;;
20669;SDS011;10494;50.868;4.180;2023-08-01T01:20:56;11.18;;;5.13;;
20669;SDS011;10494;50.868;4.180;2023-08-01T01:23:22;14.68;;;5.18;;
20669;SDS011;10494;50.868;4.180;2023-08-01T01:25:49;11.63;;;4.95;;
20669;SDS011;10494;50.868;4.180;2023-08-01T01:28:16;11.90;;;5.65;;
20669;SDS011;10494;50.868;4.180;2023-08-01T01:30:43;12.63;;;5.25;;
20669;SDS011;10494;50.868;4.180;2023-08-01T01:33:09;15.00;;;5.28;;
20669;SDS011;10494;50.868;4.180;2023-08-01T01:35:36;12.88;;;5.30;;
20669;SDS011;10494;50.868;4.180;2023-08-01T01:38:02;18.20;;;5.35;;
20669;SDS011;10494;50.868;4.180;2023-08-01T01:40:31;14.65;;;5.25;;
20669;SDS011;10494;50.868;4.180;2023-08-01T01:42:58;13.23;;;5.28;;
20669;SDS011;10494;50.868;4.180;2023-08-01T01:45:24;13.50;;;5.40;;
20669;SDS011;10494;50.868;4.180;2023-08-01T01:47:50;20.02;;;5.80;;
20669;SDS011;10494;50.868;4.180;2023-08-01T01:50:16;12.18;;;5.13;;
20669;SDS011;10494;50.868;4.180;2023-08-01T01:52:42;12.60;;;5.72;;
20669;SDS011;10494;50.868;4.180;2023-08-01T01:55:08;14.27;;;5.65;;
20669;SDS011;10494;50.868;4.180;2023-08-01T01:57:34;14.23;;;5.40;;
20669;SDS011;10494;50.868;4.180;2023-08-01T02:00:01;16.15;;;5.68;;
20669;SDS011;10494;50.868;4.180;2023-08-01T02:02:27;13.70;;;4.93;;
20669;SDS011;10494;50.868;4.180;2023-08-01T02:04:53;11.50;;;5.15;;
20669;SDS011;10494;50.868;4.180;2023-08-01T02:07:18;13.23;;;6.18;;
20669;SDS011;10494;50.868;4.180;2023-08-01T02:09:44;10.38;;;5.97;;
20669;SDS011;10494;50.868;4.180;2023-08-01T02:12:09;10.10;;;5.50;;
20669;SDS011;10494;50.868;4.180;2023-08-01T02:14:38;10.90;;;5.63;;
20669;SDS011;10494;50.868;4.180;2023-08-01T02:17:04;12.27;;;5.38;;
20669;SDS011;10494;50.868;4.180;2023-08-01T02:19:30;13.93;;;6.28;;
20669;SDS011;10494;50.868;4.180;2023-08-01T02:21:55;14.10;;;6.38;;
20669;SDS011;10494;50.868;4.180;2023-08-01T02:24:21;11.85;;;6.20;;
20669;SDS011;10494;50.868;4.180;2023-08-01T02:26:47;16.02;;;6.60;;
20669;SDS011;10494;50.868;4.180;2023-08-01T02:29:14;13.93;;;5.85;;
20669;SDS011;10494;50.868;4.180;2023-08-01T02:31:40;18.48;;;7.43;;
20669;SDS011;10494;50.868;4.180;2023-08-01T02:34:05;16.80;;;6.57;;
20669;SDS011;10494;50.868;4.180;2023-08-01T02:36:31;20.55;;;6.50;;
20669;SDS011;10494;50.868;4.180;2023-08-01T02:38:56;18.15;;;6.60;;
20669;SDS011;10494;50.868;4.180;2023-08-01T02:41:22;15.75;;;6.80;;
20669;SDS011;10494;50.868;4.180;2023-08-01T02:43:47;15.63;;;6.22;;
20669;SDS011;10494;50.868;4.180;2023-08-01T02:46:13;22.15;;;7.38;;
20669;SDS011;10494;50.868;4.180;2023-08-01T02:48:39;14.55;;;6.90;;
20669;SDS011;10494;50.868;4.180;2023-08-01T02:51:04;19.30;;;7.15;;
20669;SDS011;10494;50.868;4.180;2023-08-01T02:53:34;13.93;;;6.28;;
20669;SDS011;10494;50.868;4.180;2023-08-01T02:56:02;13.43;;;7.35;;
20669;SDS011;10494;50.868;4.180;2023-08-01T02:58:32;17.70;;;7.43;;
20669;SDS011;10494;50.868;4.180;2023-08-01T03:00:57;23.13;;;7.50;;
20669;SDS011;10494;50.868;4.180;2023-08-01T03:03:23;17.02;;;7.22;;
20669;SDS011;10494;50.868;4.180;2023-08-01T03:05:49;15.45;;;7.55;;
20669;SDS011;10494;50.868;4.180;2023-08-01T03:08:14;23.50;;;7.60;;
20669;SDS011;10494;50.868;4.180;2023-08-01T03:10:40;23.05;;;7.32;;
20669;SDS011;10494;50.868;4.180;2023-08-01T03:13:05;17.30;;;7.22;;
20669;SDS011;10494;50.868;4.180;2023-08-01T03:15:31;15.85;;;7.60;;
20669;SDS011;10494;50.868;4.180;2023-08-01T03:17:57;22.20;;;7.68;;
20669;SDS011;10494;50.868;4.180;2023-08-01T03:20:22;15.38;;;6.97;;
20669;SDS011;10494;50.868;4.180;2023-08-01T03:22:48;19.42;;;7.25;;
20669;SDS011;10494;50.868;4.180;2023-08-01T03:25:13;13.65;;;6.70;;
20669;SDS011;10494;50.868;4.180;2023-08-01T03:27:39;18.02;;;6.97;;
20669;SDS011;10494;50.868;4.180;2023-08-01T03:30:05;22.17;;;7.20;;
20669;SDS011;10494;50.868;4.180;2023-08-01T03:32:33;24.25;;;7.30;;
20669;SDS011;10494;50.868;4.180;2023-08-01T03:35:00;16.30;;;6.70;;
20669;SDS011;10494;50.868;4.180;2023-08-01T03:37:25;21.27;;;7.15;;
20669;SDS011;10494;50.868;4.180;2023-08-01T03:39:51;21.33;;;6.78;;
20669;SDS011;10494;50.868;4.180;2023-08-01T03:42:16;21.15;;;7.70;;
20669;SDS011;10494;50.868;4.180;2023-08-01T03:44:42;17.02;;;6.28;;
20669;SDS011;10494;50.868;4.180;2023-08-01T03:47:08;18.30;;;6.72;;
20669;SDS011;10494;50.868;4.180;2023-08-01T03:49:33;26.15;;;7.78;;
20669;SDS011;10494;50.868;4.180;2023-08-01T03:51:59;26.52;;;7.18;;
20669;SDS011;10494;50.868;4.180;2023-08-01T03:54:24;19.38;;;7.97;;
20669;SDS011;10494;50.868;4.180;2023-08-01T03:56:50;18.52;;;7.25;;
20669;SDS011;10494;50.868;4.180;2023-08-01T03:59:15;21.63;;;7.35;;
20669;SDS011;10494;50.868;4.180;2023-08-01T04:01:41;18.38;;;7.32;;
20669;SDS011;10494;50.868;4.180;2023-08-01T04:04:08;19.10;;;7.03;;
20669;SDS011;10494;50.868;4.180;2023-08-01T04:06:34;22.73;;;8.15;;
20669;SDS011;10494;50.868;4.180;2023-08-01T04:09:00;18.02;;;8.23;;
20669;SDS011;10494;50.868;4.180;2023-08-01T04:11:25;15.45;;;7.55;;
20669;SDS011;10494;50.868;4.180;2023-08-01T04:13:52;21.17;;;7.65;;
20669;SDS011;10494;50.868;4.180;2023-08-01T04:16:17;20.42;;;8.00;;
20669;SDS011;10494;50.868;4.180;2023-08-01T04:18:43;19.10;;;7.22;;
20669;SDS011;10494;50.868;4.180;2023-08-01T04:21:09;20.45;;;6.82;;
20669;SDS011;10494;50.868;4.180;2023-08-01T04:23:34;19.80;;;7.10;;
20669;SDS011;10494;50.868;4.180;2023-08-01T04:26:00;24.10;;;7.85;;
20669;SDS011;10494;50.868;4.180;2023-08-01T04:28:25;20.13;;;8.45;;
20669;SDS011;10494;50.868;4.180;2023-08-01T04:30:51;18.92;;;7.60;;
20669;SDS011;10494;50.868;4.180;2023-08-01T04:33:17;22.52;;;7.65;;
20669;SDS011;10494;50.868;4.180;2023-08-01T04:35:43;24.70;;;7.15;;
20669;SDS011;10494;50.868;4.180;2023-08-01T04:38:09;19.50;;;7.82;;
20669;SDS011;10494;50.868;4.180;2023-08-01T04:40:35;22.08;;;7.93;;
20669;SDS011;10494;50.868;4.180;2023-08-01T04:43:01;15.93;;;7.35;;
20669;SDS011;10494;50.868;4.180;2023-08-01T04:45:27;18.70;;;7.40;;
20669;SDS011;10494;50.868;4.180;2023-08-01T04:47:53;22.27;;;7.07;;
20669;SDS011;10494;50.868;4.180;2023-08-01T04:50:18;22.52;;;6.53;;
20669;SDS011;10494;50.868;4.180;2023-08-01T04:52:44;16.52;;;6.70;;
20669;SDS011;10494;50.868;4.180;2023-08-01T04:55:09;17.65;;;7.22;;
20669;SDS011;10494;50.868;4.180;2023-08-01T04:57:35;16.55;;;7.03;;
20669;SDS011;10494;50.868;4.180;2023-08-01T05:00:01;15.23;;;6.72;;
20669;SDS011;10494;50.868;4.180;2023-08-01T05:02:28;19.25;;;6.72;;
20669;SDS011;10494;50.868;4.180;2023-08-01T05:04:53;18.20;;;7.15;;
20669;SDS011;10494;50.868;4.180;2023-08-01T05:07:19;19.80;;;6.97;;
20669;SDS011;10494;50.868;4.180;2023-08-01T05:09:45;16.15;;;6.32;;
20669;SDS011;10494;50.868;4.180;2023-08-01T05:12:10;15.82;;;7.40;;
20669;SDS011;10494;50.868;4.180;2023-08-01T05:14:36;18.98;;;6.45;;
20669;SDS011;10494;50.868;4.180;2023-08-01T05:17:01;19.92;;;7.05;;
20669;SDS011;10494;50.868;4.180;2023-08-01T05:19:27;18.58;;;7.05;;
20669;SDS011;10494;50.868;4.180;2023-08-01T05:21:53;17.55;;;6.68;;
20669;SDS011;10494;50.868;4.180;2023-08-01T05:24:20;17.15;;;6.15;;
20669;SDS011;10494;50.868;4.180;2023-08-01T05:26:46;13.98;;;5.70;;
20669;SDS011;10494;50.868;4.180;2023-08-01T05:29:12;20.35;;;6.63;;
20669;SDS011;10494;50.868;4.180;2023-08-01T05:31:37;17.95;;;6.32;;
20669;SDS011;10494;50.868;4.180;2023-08-01T05:34:03;22.38;;;5.88;;
20669;SDS011;10494;50.868;4.180;2023-08-01T05:36:29;22.52;;;6.15;;
20669;SDS011;10494;50.868;4.180;2023-08-01T05:38:54;14.25;;;6.18;;
20669;SDS011;10494;50.868;4.180;2023-08-01T05:41:21;18.63;;;6.35;;
20669;SDS011;10494;50.868;4.180;2023-08-01T05:43:47;13.32;;;6.40;;
20669;SDS011;10494;50.868;4.180;2023-08-01T05:46:14;16.55;;;6.50;;
20669;SDS011;10494;50.868;4.180;2023-08-01T05:48:39;11.98;;;5.82;;
20669;SDS011;10494;50.868;4.180;2023-08-01T05:51:05;13.93;;;6.25;;
20669;SDS011;10494;50.868;4.180;2023-08-01T05:53:31;18.02;;;6.80;;
20669;SDS011;10494;50.868;4.180;2023-08-01T05:55:56;13.52;;;5.53;;
20669;SDS011;10494;50.868;4.180;2023-08-01T05:58:22;16.52;;;5.25;;
20669;SDS011;10494;50.868;4.180;2023-08-01T06:00:48;18.52;;;6.50;;
20669;SDS011;10494;50.868;4.180;2023-08-01T06:03:13;15.18;;;5.43;;
20669;SDS011;10494;50.868;4.180;2023-08-01T06:05:39;17.13;;;5.75;;
20669;SDS011;10494;50.868;4.180;2023-08-01T06:08:08;20.23;;;6.13;;
20669;SDS011;10494;50.868;4.180;2023-08-01T06:10:34;17.75;;;5.70;;
20669;SDS011;10494;50.868;4.180;2023-08-01T06:13:00;18.92;;;6.53;;
20669;SDS011;10494;50.868;4.180;2023-08-01T06:15:26;15.18;;;5.68;;
20669;SDS011;10494;50.868;4.180;2023-08-01T06:17:52;11.60;;;5.30;;
20669;SDS011;10494;50.868;4.180;2023-08-01T06:20:18;12.80;;;5.38;;
20669;SDS011;10494;50.868;4.180;2023-08-01T06:22:44;14.85;;;5.60;;
20669;SDS011;10494;50.868;4.180;2023-08-01T06:25:11;15.13;;;5.03;;
20669;SDS011;10494;50.868;4.180;2023-08-01T06:27:37;17.98;;;6.32;;
20669;SDS011;10494;50.868;4.180;2023-08-01T06:30:03;12.93;;;5.55;;
20669;SDS011;10494;50.868;4.180;2023-08-01T06:32:29;16.30;;;5.70;;
20669;SDS011;10494;50.868;4.180;2023-08-01T06:34:55;22.40;;;6.72;;
20669;SDS011;10494;50.868;4.180;2023-08-01T06:37:20;16.52;;;6.53;;
20669;SDS011;10494;50.868;4.180;2023-08-01T06:39:46;15.68;;;5.85;;
20669;SDS011;10494;50.868;4.180;2023-08-01T06:42:12;16.17;;;6.30;;
20669;SDS011;10494;50.868;4.180;2023-08-01T06:44:37;15.10;;;6.47;;
20669;SDS011;10494;50.868;4.180;2023-08-01T06:47:03;10.23;;;5.32;;
20669;SDS011;10494;50.868;4.180;2023-08-01T06:49:29;16.80;;;5.85;;
20669;SDS011;10494;50.868;4.180;2023-08-01T06:51:54;13.57;;;5.70;;
20669;SDS011;10494;50.868;4.180;2023-08-01T06:54:20;13.38;;;5.95;;
20669;SDS011;10494;50.868;4.180;2023-08-01T06:56:46;15.00;;;5.93;;
20669;SDS011;10494;50.868;4.180;2023-08-01T06:59:14;13.50;;;6.00;;
20669;SDS011;10494;50.868;4.180;2023-08-01T07:01:40;20.70;;;6.03;;
20669;SDS011;10494;50.868;4.180;2023-08-01T07:04:12;17.45;;;5.85;;
20669;SDS011;10494;50.868;4.180;2023-08-01T07:06:38;18.90;;;6.22;;
20669;SDS011;10494;50.868;4.180;2023-08-01T07:09:04;15.18;;;6.03;;
20669;SDS011;10494;50.868;4.180;2023-08-01T07:11:30;13.27;;;5.22;;
20669;SDS011;10494;50.868;4.180;2023-08-01T07:13:56;23.58;;;5.95;;
20669;SDS011;10494;50.868;4.180;2023-08-01T07:16:21;13.55;;;5.18;;
20669;SDS011;10494;50.868;4.180;2023-08-01T07:18:47;11.80;;;5.32;;
20669;SDS011;10494;50.868;4.180;2023-08-01T07:21:13;11.88;;;5.43;;
20669;SDS011;10494;50.868;4.180;2023-08-01T07:23:39;12.65;;;5.85;;
20669;SDS011;10494;50.868;4.180;2023-08-01T07:26:05;14.95;;;5.53;;
20669;SDS011;10494;50.868;4.180;2023-08-01T07:28:30;16.42;;;5.45;;
20669;SDS011;10494;50.868;4.180;2023-08-01T07:31:03;15.18;;;5.97;;
20669;SDS011;10494;50.868;4.180;2023-08-01T07:33:30;16.13;;;5.93;;
20669;SDS011;10494;50.868;4.180;2023-08-01T07:35:56;15.18;;;5.65;;
20669;SDS011;10494;50.868;4.180;2023-08-01T07:38:22;16.30;;;5.05;;
20669;SDS011;10494;50.868;4.180;2023-08-01T07:40:48;19.20;;;5.97;;
20669;SDS011;10494;50.868;4.180;2023-08-01T07:43:15;10.98;;;4.75;;
20669;SDS011;10494;50.868;4.180;2023-08-01T07:45:40;16.95;;;5.28;;
20669;SDS011;10494;50.868;4.180;2023-08-01T07:48:06;17.33;;;5.40;;
20669;SDS011;10494;50.868;4.180;2023-08-01T07:50:32;16.05;;;4.68;;
20669;SDS011;10494;50.868;4.180;2023-08-01T07:52:58;16.38;;;4.43;;
20669;SDS011;10494;50.868;4.180;2023-08-01T07:55:23;16.23;;;5.25;;
20669;SDS011;10494;50.868;4.180;2023-08-01T07:57:49;12.88;;;4.22;;
20669;SDS011;10494;50.868;4.180;2023-08-01T08:00:15;9.68;;;3.85;;
20669;SDS011;10494;50.868;4.180;2023-08-01T08:02:44;18.83;;;4.25;;
20669;SDS011;10494;50.868;4.180;2023-08-01T08:05:10;10.85;;;3.78;;
20669;SDS011;10494;50.868;4.180;2023-08-01T08:07:36;13.15;;;3.85;;
20669;SDS011;10494;50.868;4.180;2023-08-01T08:10:03;11.95;;;3.70;;
20669;SDS011;10494;50.868;4.180;2023-08-01T08:12:29;16.00;;;4.20;;
20669;SDS011;10494;50.868;4.180;2023-08-01T08:14:54;15.52;;;3.60;;
20669;SDS011;10494;50.868;4.180;2023-08-01T08:17:20;10.18;;;3.80;;
20669;SDS011;10494;50.868;4.180;2023-08-01T08:19:46;16.27;;;4.10;;
20669;SDS011;10494;50.868;4.180;2023-08-01T08:22:12;13.80;;;3.75;;
20669;SDS011;10494;50.868;4.180;2023-08-01T08:24:37;12.35;;;3.88;;
20669;SDS011;10494;50.868;4.180;2023-08-01T08:27:03;10.80;;;3.50;;
20669;SDS011;10494;50.868;4.180;2023-08-01T08:29:29;13.02;;;3.72;;
20669;SDS011;10494;50.868;4.180;2023-08-01T08:31:56;10.60;;;3.45;;
20669;SDS011;10494;50.868;4.180;2023-08-01T08:34:22;8.80;;;3.05;;
20669;SDS011;10494;50.868;4.180;2023-08-01T08:36:47;10.40;;;2.95;;
20669;SDS011;10494;50.868;4.180;2023-08-01T08:39:15;7.45;;;2.65;;
20669;SDS011;10494;50.868;4.180;2023-08-01T08:41:45;8.48;;;2.75;;
20669;SDS011;10494;50.868;4.180;2023-08-01T08:44:13;7.28;;;2.40;;
20669;SDS011;10494;50.868;4.180;2023-08-01T08:46:42;12.48;;;3.10;;
20669;SDS011;10494;50.868;4.180;2023-08-01T08:49:08;7.32;;;2.58;;
20669;SDS011;10494;50.868;4.180;2023-08-01T08:51:35;5.72;;;2.40;;
20669;SDS011;10494;50.868;4.180;2023-08-01T08:54:02;8.88;;;2.45;;
20669;SDS011;10494;50.868;4.180;2023-08-01T08:56:28;9.70;;;2.80;;
20669;SDS011;10494;50.868;4.180;2023-08-01T08:58:54;8.63;;;2.65;;
20669;SDS011;10494;50.868;4.180;2023-08-01T09:01:21;8.38;;;2.50;;
20669;SDS011;10494;50.868;4.180;2023-08-01T09:03:47;8.50;;;2.85;;
20669;SDS011;10494;50.868;4.180;2023-08-01T09:06:21;9.10;;;2.30;;
20669;SDS011;10494;50.868;4.180;2023-08-01T09:08:56;7.00;;;2.63;;
20669;SDS011;10494;50.868;4.180;2023-08-01T09:11:27;5.97;;;2.30;;
20669;SDS011;10494;50.868;4.180;2023-08-01T09:13:52;8.55;;;2.78;;
20669;SDS011;10494;50.868;4.180;2023-08-01T09:16:18;10.60;;;2.47;;
20669;SDS011;10494;50.868;4.180;2023-08-01T09:18:51;7.90;;;2.85;;
20669;SDS011;10494;50.868;4.180;2023-08-01T09:21:20;7.45;;;2.65;;
20669;SDS011;10494;50.868;4.180;2023-08-01T09:23:46;5.07;;;2.03;;
20669;SDS011;10494;50.868;4.180;2023-08-01T09:26:13;7.35;;;2.42;;
20669;SDS011;10494;50.868;4.180;2023-08-01T09:28:43;7.47;;;2.55;;
20669;SDS011;10494;50.868;4.180;2023-08-01T09:31:09;11.30;;;2.90;;
20669;SDS011;10494;50.868;4.180;2023-08-01T09:33:42;7.25;;;2.33;;
20669;SDS011;10494;50.868;4.180;2023-08-01T09:36:08;6.57;;;2.30;;
20669;SDS011;10494;50.868;4.180;2023-08-01T09:38:34;11.65;;;2.90;;
20669;SDS011;10494;50.868;4.180;2023-08-01T09:41:02;7.18;;;2.80;;
20669;SDS011;10494;50.868;4.180;2023-08-01T09:43:34;10.80;;;2.95;;
20669;SDS011;10494;50.868;4.180;2023-08-01T09:46:01;10.00;;;2.40;;
20669;SDS011;10494;50.868;4.180;2023-08-01T09:48:27;8.63;;;2.90;;
20669;SDS011;10494;50.868;4.180;2023-08-01T09:53:50;11.55;;;2.70;;
20669;SDS011;10494;50.868;4.180;2023-08-01T09:56:21;8.65;;;2.67;;
20669;SDS011;10494;50.868;4.180;2023-08-01T09:58:52;6.90;;;2.85;;
20669;SDS011;10494;50.868;4.180;2023-08-01T10:01:20;9.75;;;2.53;;
20669;SDS011;10494;50.868;4.180;2023-08-01T10:03:48;5.22;;;2.15;;
20669;SDS011;10494;50.868;4.180;2023-08-01T10:06:19;8.55;;;2.58;;
20669;SDS011;10494;50.868;4.180;2023-08-01T10:08:50;5.40;;;2.10;;
20669;SDS011;10494;50.868;4.180;2023-08-01T10:11:17;6.40;;;2.25;;
20669;SDS011;10494;50.868;4.180;2023-08-01T10:13:44;6.15;;;2.20;;
20669;SDS011;10494;50.868;4.180;2023-08-01T10:16:11;5.85;;;2.17;;
20669;SDS011;10494;50.868;4.180;2023-08-01T10:18:37;6.78;;;2.30;;
20669;SDS011;10494;50.868;4.180;2023-08-01T10:21:05;7.75;;;2.35;;
20669;SDS011;10494;50.868;4.180;2023-08-01T10:23:34;9.45;;;2.42;;
20669;SDS011;10494;50.868;4.180;2023-08-01T10:26:03;10.88;;;2.47;;
20669;SDS011;10494;50.868;4.180;2023-08-01T10:28:37;6.70;;;2.22;;
20669;SDS011;10494;50.868;4.180;2023-08-01T10:31:10;5.00;;;1.80;;
20669;SDS011;10494;50.868;4.180;2023-08-01T10:33:49;9.82;;;2.65;;
20669;SDS011;10494;50.868;4.180;2023-08-01T10:36:15;7.65;;;2.20;;
20669;SDS011;10494;50.868;4.180;2023-08-01T10:44:09;10.80;;;2.30;;
20669;SDS011;10494;50.868;4.180;2023-08-01T10:49:16;6.88;;;1.88;;
20669;SDS011;10494;50.868;4.180;2023-08-01T10:51:44;6.45;;;1.92;;
20669;SDS011;10494;50.868;4.180;2023-08-01T10:54:23;5.90;;;2.15;;
20669;SDS011;10494;50.868;4.180;2023-08-01T10:56:51;6.53;;;2.00;;
20669;SDS011;10494;50.868;4.180;2023-08-01T10:59:18;13.80;;;2.42;;
20669;SDS011;10494;50.868;4.180;2023-08-01T11:04:19;7.43;;;2.33;;
20669;SDS011;10494;50.868;4.180;2023-08-01T11:06:47;6.97;;;2.28;;
20669;SDS011;10494;50.868;4.180;2023-08-01T11:09:24;6.63;;;2.03;;
20669;SDS011;10494;50.868;4.180;2023-08-01T11:11:58;7.88;;;2.22;;
20669;SDS011;10494;50.868;4.180;2023-08-01T11:14:26;6.35;;;2.00;;
20669;SDS011;10494;50.868;4.180;2023-08-01T11:16:53;8.45;;;1.80;;
20669;SDS011;10494;50.868;4.180;2023-08-01T11:21:51;5.28;;;1.80;;
20669;SDS011;10494;50.868;4.180;2023-08-01T11:24:17;9.02;;;2.20;;
20669;SDS011;10494;50.868;4.180;2023-08-01T11:26:44;6.95;;;1.80;;
20669;SDS011;10494;50.868;4.180;2023-08-01T11:29:12;6.47;;;1.90;;
20669;SDS011;10494;50.868;4.180;2023-08-01T11:31:38;6.22;;;1.50;;
20669;SDS011;10494;50.868;4.180;2023-08-01T11:34:06;8.23;;;1.73;;
20669;SDS011;10494;50.868;4.180;2023-08-01T11:36:34;3.60;;;1.42;;
20669;SDS011;10494;50.868;4.180;2023-08-01T11:39:01;4.70;;;1.63;;
20669;SDS011;10494;50.868;4.180;2023-08-01T11:41:27;7.38;;;1.90;;
20669;SDS011;10494;50.868;4.180;2023-08-01T11:43:53;7.05;;;1.63;;
20669;SDS011;10494;50.868;4.180;2023-08-01T11:46:20;4.22;;;1.75;;
20669;SDS011;10494;50.868;4.180;2023-08-01T11:48:47;9.10;;;1.88;;
20669;SDS011;10494;50.868;4.180;2023-08-01T11:51:15;10.13;;;2.30;;
20669;SDS011;10494;50.868;4.180;2023-08-01T11:53:41;8.82;;;2.15;;
20669;SDS011;10494;50.868;4.180;2023-08-01T11:56:06;3.63;;;1.92;;
20669;SDS011;10494;50.868;4.180;2023-08-01T11:58:33;4.80;;;1.63;;
20669;SDS011;10494;50.868;4.180;2023-08-01T12:01:03;6.65;;;1.95;;
20669;SDS011;10494;50.868;4.180;2023-08-01T12:03:47;4.00;;;1.70;;
20669;SDS011;10494;50.868;4.180;2023-08-01T12:06:17;5.88;;;1.60;;
20669;SDS011;10494;50.868;4.180;2023-08-01T12:08:45;5.30;;;1.70;;
20669;SDS011;10494;50.868;4.180;2023-08-01T12:11:22;5.00;;;1.45;;
20669;SDS011;10494;50.868;4.180;2023-08-01T12:14:02;4.10;;;1.25;;
20669;SDS011;10494;50.868;4.180;2023-08-01T12:16:36;4.50;;;1.60;;
20669;SDS011;10494;50.868;4.180;2023-08-01T12:19:03;7.13;;;1.60;;
20669;SDS011;10494;50.868;4.180;2023-08-01T12:21:31;4.03;;;1.70;;
20669;SDS011;10494;50.868;4.180;2023-08-01T12:23:58;3.45;;;1.38;;
20669;SDS011;10494;50.868;4.180;2023-08-01T12:26:24;5.40;;;1.80;;
20669;SDS011;10494;50.868;4.180;2023-08-01T12:28:50;4.72;;;1.92;;
20669;SDS011;10494;50.868;4.180;2023-08-01T12:31:19;4.30;;;1.75;;
20669;SDS011;10494;50.868;4.180;2023-08-01T12:33:46;8.40;;;1.45;;
20669;SDS011;10494;50.868;4.180;2023-08-01T12:36:13;7.82;;;1.85;;
20669;SDS011;10494;50.868;4.180;2023-08-01T12:38:38;6.55;;;1.77;;
20669;SDS011;10494;50.868;4.180;2023-08-01T12:41:04;7.13;;;2.35;;
20669;SDS011;10494;50.868;4.180;2023-08-01T12:43:30;5.50;;;1.60;;
20669;SDS011;10494;50.868;4.180;2023-08-01T12:45:56;6.50;;;1.42;;
20669;SDS011;10494;50.868;4.180;2023-08-01T12:48:23;6.13;;;1.95;;
20669;SDS011;10494;50.868;4.180;2023-08-01T12:50:49;7.68;;;1.70;;
20669;SDS011;10494;50.868;4.180;2023-08-01T12:53:15;5.95;;;1.48;;
20669;SDS011;10494;50.868;4.180;2023-08-01T12:55:47;3.90;;;1.17;;
20669;SDS011;10494;50.868;4.180;2023-08-01T12:58:14;3.13;;;1.30;;
20669;SDS011;10494;50.868;4.180;2023-08-01T13:00:40;3.60;;;1.63;;
20669;SDS011;10494;50.868;4.180;2023-08-01T13:03:06;4.78;;;1.63;;
20669;SDS011;10494;50.868;4.180;2023-08-01T13:05:39;6.25;;;1.98;;
20669;SDS011;10494;50.868;4.180;2023-08-01T13:08:05;5.07;;;1.60;;
20669;SDS011;10494;50.868;4.180;2023-08-01T13:10:31;8.48;;;1.60;;
20669;SDS011;10494;50.868;4.180;2023-08-01T13:12:58;5.22;;;1.80;;
20669;SDS011;10494;50.868;4.180;2023-08-01T13:15:24;7.53;;;2.03;;
20669;SDS011;10494;50.868;4.180;2023-08-01T13:17:50;4.95;;;1.73;;
20669;SDS011;10494;50.868;4.180;2023-08-01T13:20:16;5.95;;;1.95;;
20669;SDS011;10494;50.868;4.180;2023-08-01T13:22:42;5.07;;;1.90;;
20669;SDS011;10494;50.868;4.180;2023-08-01T13:25:08;5.85;;;2.00;;
20669;SDS011;10494;50.868;4.180;2023-08-01T13:27:34;7.82;;;2.25;;
20669;SDS011;10494;50.868;4.180;2023-08-01T13:30:01;4.63;;;1.80;;
20669;SDS011;10494;50.868;4.180;2023-08-01T13:32:27;5.00;;;2.13;;
20669;SDS011;10494;50.868;4.180;2023-08-01T13:34:53;6.57;;;1.98;;
20669;SDS011;10494;50.868;4.180;2023-08-01T13:37:19;7.40;;;2.35;;
20669;SDS011;10494;50.868;4.180;2023-08-01T13:39:44;5.43;;;1.60;;
20669;SDS011;10494;50.868;4.180;2023-08-01T13:42:11;6.25;;;1.48;;
20669;SDS011;10494;50.868;4.180;2023-08-01T13:44:37;5.95;;;2.40;;
20669;SDS011;10494;50.868;4.180;2023-08-01T13:47:03;9.52;;;1.70;;
20669;SDS011;10494;50.868;4.180;2023-08-01T13:49:29;4.85;;;1.60;;
20669;SDS011;10494;50.868;4.180;2023-08-01T13:51:55;6.88;;;1.88;;
20669;SDS011;10494;50.868;4.180;2023-08-01T13:54:20;8.18;;;1.88;;
20669;SDS011;10494;50.868;4.180;2023-08-01T13:56:46;5.68;;;1.45;;
20669;SDS011;10494;50.868;4.180;2023-08-01T13:59:11;5.85;;;1.80;;
20669;SDS011;10494;50.868;4.180;2023-08-01T14:01:37;4.43;;;1.45;;
20669;SDS011;10494;50.868;4.180;2023-08-01T14:04:03;6.05;;;1.63;;
20669;SDS011;10494;50.868;4.180;2023-08-01T14:06:29;4.60;;;1.65;;
20669;SDS011;10494;50.868;4.180;2023-08-01T14:08:55;7.85;;;1.85;;
20669;SDS011;10494;50.868;4.180;2023-08-01T14:11:20;7.05;;;1.42;;
20669;SDS011;10494;50.868;4.180;2023-08-01T14:13:46;6.50;;;1.80;;
20669;SDS011;10494;50.868;4.180;2023-08-01T14:16:12;3.92;;;1.38;;
20669;SDS011;10494;50.868;4.180;2023-08-01T14:18:37;7.88;;;1.45;;
20669;SDS011;10494;50.868;4.180;2023-08-01T14:21:04;5.82;;;1.30;;
20669;SDS011;10494;50.868;4.180;2023-08-01T14:23:30;5.60;;;1.77;;
20669;SDS011;10494;50.868;4.180;2023-08-01T14:25:57;6.03;;;1.73;;
20669;SDS011;10494;50.868;4.180;2023-08-01T14:28:23;7.38;;;1.85;;
20669;SDS011;10494;50.868;4.180;2023-08-01T14:30:48;5.30;;;1.70;;
20669;SDS011;10494;50.868;4.180;2023-08-01T14:33:14;5.93;;;1.50;;
20669;SDS011;10494;50.868;4.180;2023-08-01T14:35:40;5.07;;;1.70;;
20669;SDS011;10494;50.868;4.180;2023-08-01T14:38:05;8.13;;;1.70;;
20669;SDS011;10494;50.868;4.180;2023-08-01T14:40:31;9.77;;;2.03;;
20669;SDS011;10494;50.868;4.180;2023-08-01T14:42:59;6.68;;;1.65;;
20669;SDS011;10494;50.868;4.180;2023-08-01T14:45:24;6.57;;;1.67;;
20669;SDS011;10494;50.868;4.180;2023-08-01T14:47:50;9.27;;;1.80;;
20669;SDS011;10494;50.868;4.180;2023-08-01T14:50:16;8.82;;;1.92;;
20669;SDS011;10494;50.868;4.180;2023-08-01T14:52:41;10.50;;;2.00;;